logo dgac
Viernes 01 de Julio del 2022
Buscar por aerodromo o helipuerto
Ingrese nombre de aeródromo, localidad o designador OACI:
TAF: TAF SCCI 011019Z 0112/0212 30010KT 9999 FEW038 TNM03/0112Z TX05/0118Z BECMG 0122/0200 34005KT BECMG 0201/0203 01010KT PROB30 TEMPO 0206/0212 06018KT 6000 FEW015 SCT025
TAF del 01/07/2022 a las 10:19 UTC
Para mayor información visite www.meteochile.cl
Período de validez: desde el 01 a las 12:00 UTC hasta el 02 a las 12:00 UTC
Viento: dirección 300 grados, velocidad 10 nudos
Visibilidad: 10 km o más
Nubes: Escasa nubosidad a 3800 pies sobre el nivel del aeródromo
Nan: TNM03/0112Z
Temperatura máxima: 5ºC el 01 a las 18:00 UTC
Se espera un cambio entre las 22:00 UTC del 01 y las 00:00 UTC del 02, :
Viento: dirección 340 grados, velocidad 5 nudos
Se espera un cambio entre las 01:00 UTC del 02 y las 03:00 UTC del 02, :
Viento: dirección 010 grados, velocidad 10 nudos
Entre las 06:00 UTC del 02 y las 12:00 UTC del 02 (de vez en cuando) , hay 30% de probabilidad de que:
Viento: dirección 060 grados, velocidad 18 nudos
Visibilidad: 6000 metros
Nubes: Escasa nubosidad a 1500 pies sobre el nivel del aeródromo
Nubes: Nubosidad parcial a 2500 pies sobre el nivel del aeródromo